EDDBUMMS

Guest
Details From EDDB - Berlin Schoenefeld
To UMMS - Minsk Velikiydvor
Flight Number -
Tags decoded
Created
Modified
Stats Distance 530 nm / 981 km
Max Altitude 0 ft / 0 m
Waypoints 2
Social Downloads 0
Likes 0
Share VATSIM

Download

Looking for another format? Having issues loading an existing format? Contact us
Advertisement - Login to hide

Notes

Requested: EDDB UMMS

Route

EDDB UMMS

ID Type Via Altitude Latitude Longitude Leg Dist Tot Dist Heading (true) Name
O EDDB APT - 0 ft / 0 m 52.37854˚ 13.52063˚ - 0 nm - Berlin Schoenefeld
O UMMS APT - 0 ft / 0 m 53.88255˚ 28.03079˚ 529 nm 529 nm 74° / 86° Minsk Velikiydvor

Altitude Profile

Advertisement - Login to hide

Weather


0- 5 10 15 20 25 30 35+ Temperature / ° C

Clouds and Precipitation
Forecast for 2018-05-25 06:00 UTC. Updated 2 hours ago

Ground ~20,000 ft ~40,000 ft Winds

EDDB

Details ICAO EDDB (BER)
Name Berlin Schoenefeld
Region Germany - Civil
Timezone Europe/Berlin (UTC+2.0)
Stats Elevation 157 ft / 48 m (AMSL)
Location 52.378541° 13.520629°
Runways 2
Magnetic Variation 3.866° E

METAR

EDDB 250720Z 09007KT CAVOK 21/10 Q1021 NOSIG

Decode

TAF

TAF TAF EDDB 250500Z 2506/2606 06010KT CAVOK

Decode

Departure Runways

ID Width Length Bearing (true) Bearing (mag) Surface Threshold Offset Overrun Length
07 148 ft / 45 m 9,817 ft / 2,992 m 68.75° 64.88° Asphalt 0 ft / 0 m 984 ft / 300 m
07L 148 ft / 45 m 8,867 ft / 2,703 m 68.77° 64.90° Concrete 0 ft / 0 m 525 ft / 160 m
25 148 ft / 45 m 9,817 ft / 2,992 m 248.78° 244.91° Asphalt 0 ft / 0 m 984 ft / 300 m
25R 148 ft / 45 m 8,867 ft / 2,703 m 248.80° 244.93° Concrete 0 ft / 0 m 984 ft / 300 m

UMMS

Details ICAO UMMS (MSQ)
Name Minsk Velikiydvor
Region Belarus and Russia (Kaliningrad Oblast)
Timezone Europe/Minsk (UTC+3.0)
Stats Elevation 669 ft / 204 m (AMSL)
Location 53.882550° 28.030786°
Runways 1
Magnetic Variation 8.066° E

METAR

UMMS 250730Z 08003MPS 050V110 CAVOK 21/13 Q1023 R13/D NOSIG

Decode

TAF

TAF UMMS 250507Z 2506/2606 05006MPS 9999 SCT030 TEMPO 2508/2520 08009G14MPS 2000 TSRA SCT005 BKN020CB TEMPO 2520/2606 1200 BCFG BR SCT004

Decode

Destination Runways

ID Width Length Bearing (true) Bearing (mag) Surface Threshold Offset Overrun Length
13 197 ft / 60 m 11,938 ft / 3,639 m 138.85° 130.78° Concrete 0 ft / 0 m 0 ft / 0 m
31 197 ft / 60 m 11,938 ft / 3,639 m 318.88° 310.81° Concrete 0 ft / 0 m 0 ft / 0 m

Approach Navaids

Runway Type Ident Frequency Range Bearing (true) Bearing (mag) Slope Elevation
13 Localiser IVX 108.90 MHz 18 nm / 33 km 138.79° 130.73° - 669 ft / 204 m (AMSL)
13 Glidescope IVX 108.90 MHz 10 nm / 19 km 138.79° 130.73° 2.70° 669 ft / 204 m (AMSL)
31 Localiser IGH 109.70 MHz 18 nm / 33 km 318.83° 310.77° - 669 ft / 204 m (AMSL)
31 Glidescope IGH 109.70 MHz 10 nm / 19 km 318.83° 310.77° 2.70° 669 ft / 204 m (AMSL)

Popular Alternatives